sensor_id;sensor_type;location;lat;lon;timestamp;P1;durP1;ratioP1;P2;durP2;ratioP2
27863;SDS011;15980;51.092;13.916;2022-07-12T00:01:30;3.58;;;1.60;;
27863;SDS011;15980;51.092;13.916;2022-07-12T00:06:35;1.60;;;1.33;;
27863;SDS011;15980;51.092;13.916;2022-07-12T00:11:38;3.63;;;1.38;;
27863;SDS011;15980;51.092;13.916;2022-07-12T00:16:42;7.72;;;1.52;;
27863;SDS011;15980;51.092;13.916;2022-07-12T00:21:46;3.15;;;1.30;;
27863;SDS011;15980;51.092;13.916;2022-07-12T00:26:49;3.88;;;1.10;;
27863;SDS011;15980;51.092;13.916;2022-07-12T00:31:53;3.97;;;1.40;;
27863;SDS011;15980;51.092;13.916;2022-07-12T00:36:58;3.75;;;1.40;;
27863;SDS011;15980;51.092;13.916;2022-07-12T00:42:01;2.15;;;1.25;;
27863;SDS011;15980;51.092;13.916;2022-07-12T00:47:04;1.85;;;1.05;;
27863;SDS011;15980;51.092;13.916;2022-07-12T00:52:09;1.20;;;0.85;;
27863;SDS011;15980;51.092;13.916;2022-07-12T00:57:13;1.98;;;1.27;;
27863;SDS011;15980;51.092;13.916;2022-07-12T01:02:16;2.95;;;0.90;;
27863;SDS011;15980;51.092;13.916;2022-07-12T01:07:21;2.20;;;0.77;;
27863;SDS011;15980;51.092;13.916;2022-07-12T01:12:25;1.35;;;0.90;;
27863;SDS011;15980;51.092;13.916;2022-07-12T01:17:29;0.95;;;0.80;;
27863;SDS011;15980;51.092;13.916;2022-07-12T01:22:34;4.05;;;1.38;;
27863;SDS011;15980;51.092;13.916;2022-07-12T01:27:39;3.47;;;1.52;;
27863;SDS011;15980;51.092;13.916;2022-07-12T01:32:42;3.90;;;1.40;;
27863;SDS011;15980;51.092;13.916;2022-07-12T01:37:46;2.92;;;1.70;;
27863;SDS011;15980;51.092;13.916;2022-07-12T01:42:51;5.30;;;1.92;;
27863;SDS011;15980;51.092;13.916;2022-07-12T01:47:55;7.07;;;1.92;;
27863;SDS011;15980;51.092;13.916;2022-07-12T01:53:00;2.92;;;1.45;;
27863;SDS011;15980;51.092;13.916;2022-07-12T01:58:05;3.78;;;1.95;;
27863;SDS011;15980;51.092;13.916;2022-07-12T02:03:08;3.75;;;1.73;;
27863;SDS011;15980;51.092;13.916;2022-07-12T02:08:11;2.97;;;1.35;;
27863;SDS011;15980;51.092;13.916;2022-07-12T02:13:16;1.95;;;1.50;;
27863;SDS011;15980;51.092;13.916;2022-07-12T02:18:19;3.55;;;1.85;;
27863;SDS011;15980;51.092;13.916;2022-07-12T02:23:22;1.88;;;1.55;;
27863;SDS011;15980;51.092;13.916;2022-07-12T02:28:26;3.17;;;2.03;;
27863;SDS011;15980;51.092;13.916;2022-07-12T02:33:30;3.67;;;1.98;;
27863;SDS011;15980;51.092;13.916;2022-07-12T02:38:33;3.17;;;1.55;;
27863;SDS011;15980;51.092;13.916;2022-07-12T02:43:37;3.55;;;1.20;;
27863;SDS011;15980;51.092;13.916;2022-07-12T02:48:41;2.45;;;1.50;;
27863;SDS011;15980;51.092;13.916;2022-07-12T02:53:45;2.47;;;1.40;;
27863;SDS011;15980;51.092;13.916;2022-07-12T02:58:49;2.22;;;1.58;;
27863;SDS011;15980;51.092;13.916;2022-07-12T03:03:52;4.75;;;1.60;;
27863;SDS011;15980;51.092;13.916;2022-07-12T03:08:55;2.88;;;1.80;;
27863;SDS011;15980;51.092;13.916;2022-07-12T03:13:59;2.90;;;1.80;;
27863;SDS011;15980;51.092;13.916;2022-07-12T03:19:02;2.58;;;1.50;;
27863;SDS011;15980;51.092;13.916;2022-07-12T03:24:05;4.07;;;1.90;;
27863;SDS011;15980;51.092;13.916;2022-07-12T03:29:10;2.33;;;1.90;;
27863;SDS011;15980;51.092;13.916;2022-07-12T03:34:13;3.35;;;1.90;;
27863;SDS011;15980;51.092;13.916;2022-07-12T03:39:16;3.47;;;2.05;;
27863;SDS011;15980;51.092;13.916;2022-07-12T03:44:21;2.85;;;1.98;;
27863;SDS011;15980;51.092;13.916;2022-07-12T03:49:24;3.55;;;2.45;;
27863;SDS011;15980;51.092;13.916;2022-07-12T03:54:27;5.45;;;3.35;;
27863;SDS011;15980;51.092;13.916;2022-07-12T03:59:31;6.57;;;3.20;;
27863;SDS011;15980;51.092;13.916;2022-07-12T04:04:34;6.35;;;3.17;;
27863;SDS011;15980;51.092;13.916;2022-07-12T04:09:37;7.28;;;3.70;;
27863;SDS011;15980;51.092;13.916;2022-07-12T04:14:42;4.20;;;3.08;;
27863;SDS011;15980;51.092;13.916;2022-07-12T04:19:45;9.20;;;4.15;;
27863;SDS011;15980;51.092;13.916;2022-07-12T04:24:48;4.90;;;3.53;;
27863;SDS011;15980;51.092;13.916;2022-07-12T04:29:53;4.68;;;3.53;;
27863;SDS011;15980;51.092;13.916;2022-07-12T04:34:58;4.43;;;3.50;;
27863;SDS011;15980;51.092;13.916;2022-07-12T04:40:01;6.15;;;4.60;;
27863;SDS011;15980;51.092;13.916;2022-07-12T04:45:07;7.28;;;3.40;;
27863;SDS011;15980;51.092;13.916;2022-07-12T04:50:10;7.55;;;3.50;;
27863;SDS011;15980;51.092;13.916;2022-07-12T04:55:14;5.10;;;3.63;;
27863;SDS011;15980;51.092;13.916;2022-07-12T05:00:18;5.28;;;3.45;;
27863;SDS011;15980;51.092;13.916;2022-07-12T05:05:21;6.55;;;3.50;;
27863;SDS011;15980;51.092;13.916;2022-07-12T05:10:25;9.40;;;3.80;;
27863;SDS011;15980;51.092;13.916;2022-07-12T05:15:29;6.47;;;3.75;;
27863;SDS011;15980;51.092;13.916;2022-07-12T05:20:32;5.90;;;3.78;;
27863;SDS011;15980;51.092;13.916;2022-07-12T05:25:36;5.75;;;3.70;;
27863;SDS011;15980;51.092;13.916;2022-07-12T05:30:40;6.22;;;4.25;;
27863;SDS011;15980;51.092;13.916;2022-07-12T05:35:44;5.63;;;3.70;;
27863;SDS011;15980;51.092;13.916;2022-07-12T05:40:47;5.85;;;4.72;;
27863;SDS011;15980;51.092;13.916;2022-07-12T05:45:51;7.00;;;4.50;;
27863;SDS011;15980;51.092;13.916;2022-07-12T05:50:55;5.55;;;4.40;;
27863;SDS011;15980;51.092;13.916;2022-07-12T05:56:18;6.28;;;3.83;;
27863;SDS011;15980;51.092;13.916;2022-07-12T06:01:23;4.68;;;3.00;;
27863;SDS011;15980;51.092;13.916;2022-07-12T06:06:26;6.03;;;4.00;;
27863;SDS011;15980;51.092;13.916;2022-07-12T06:11:29;9.45;;;3.80;;
27863;SDS011;15980;51.092;13.916;2022-07-12T06:16:35;5.13;;;3.78;;
27863;SDS011;15980;51.092;13.916;2022-07-12T06:21:38;4.68;;;3.20;;
27863;SDS011;15980;51.092;13.916;2022-07-12T06:26:41;8.10;;;3.97;;
27863;SDS011;15980;51.092;13.916;2022-07-12T06:31:46;6.35;;;3.85;;
27863;SDS011;15980;51.092;13.916;2022-07-12T06:36:49;5.90;;;4.30;;
27863;SDS011;15980;51.092;13.916;2022-07-12T06:41:53;7.03;;;4.43;;
27863;SDS011;15980;51.092;13.916;2022-07-12T06:46:58;6.43;;;3.70;;
27863;SDS011;15980;51.092;13.916;2022-07-12T06:52:01;6.60;;;2.95;;
27863;SDS011;15980;51.092;13.916;2022-07-12T06:57:05;10.25;;;4.13;;
27863;SDS011;15980;51.092;13.916;2022-07-12T07:02:09;7.10;;;3.50;;
27863;SDS011;15980;51.092;13.916;2022-07-12T07:07:12;3.38;;;2.25;;
27863;SDS011;15980;51.092;13.916;2022-07-12T07:12:15;4.20;;;2.80;;
27863;SDS011;15980;51.092;13.916;2022-07-12T07:17:20;3.35;;;2.50;;
27863;SDS011;15980;51.092;13.916;2022-07-12T07:22:22;3.67;;;2.28;;
27863;SDS011;15980;51.092;13.916;2022-07-12T07:27:25;4.85;;;2.50;;
27863;SDS011;15980;51.092;13.916;2022-07-12T07:32:30;3.78;;;2.28;;
27863;SDS011;15980;51.092;13.916;2022-07-12T07:37:33;5.85;;;2.40;;
27863;SDS011;15980;51.092;13.916;2022-07-12T07:42:36;4.82;;;2.20;;
27863;SDS011;15980;51.092;13.916;2022-07-12T07:47:44;5.18;;;2.50;;
27863;SDS011;15980;51.092;13.916;2022-07-12T07:53:05;3.80;;;1.73;;
27863;SDS011;15980;51.092;13.916;2022-07-12T07:58:08;3.67;;;1.90;;
27863;SDS011;15980;51.092;13.916;2022-07-12T08:03:13;4.75;;;1.95;;
27863;SDS011;15980;51.092;13.916;2022-07-12T08:08:16;5.32;;;2.20;;
27863;SDS011;15980;51.092;13.916;2022-07-12T08:13:19;3.08;;;1.67;;
27863;SDS011;15980;51.092;13.916;2022-07-12T08:18:24;7.57;;;2.45;;
27863;SDS011;15980;51.092;13.916;2022-07-12T08:23:27;4.28;;;1.60;;
27863;SDS011;15980;51.092;13.916;2022-07-12T08:28:30;5.30;;;2.10;;
27863;SDS011;15980;51.092;13.916;2022-07-12T08:33:35;2.40;;;1.20;;
27863;SDS011;15980;51.092;13.916;2022-07-12T08:38:38;2.38;;;1.33;;
27863;SDS011;15980;51.092;13.916;2022-07-12T08:43:45;3.38;;;1.33;;
27863;SDS011;15980;51.092;13.916;2022-07-12T08:48:49;1.75;;;0.82;;
27863;SDS011;15980;51.092;13.916;2022-07-12T08:54:05;3.70;;;1.00;;
27863;SDS011;15980;51.092;13.916;2022-07-12T08:59:10;0.65;;;0.55;;
27863;SDS011;15980;51.092;13.916;2022-07-12T09:04:16;11.10;;;1.45;;
27863;SDS011;15980;51.092;13.916;2022-07-12T09:09:27;1.60;;;0.90;;
27863;SDS011;15980;51.092;13.916;2022-07-12T09:14:31;4.60;;;0.95;;
27863;SDS011;15980;51.092;13.916;2022-07-12T09:19:36;4.00;;;0.80;;
27863;SDS011;15980;51.092;13.916;2022-07-12T09:24:39;1.17;;;0.40;;
27863;SDS011;15980;51.092;13.916;2022-07-12T09:29:45;0.75;;;0.43;;
27863;SDS011;15980;51.092;13.916;2022-07-12T09:34:56;2.00;;;0.60;;
27863;SDS011;15980;51.092;13.916;2022-07-12T09:40:17;2.58;;;0.80;;
27863;SDS011;15980;51.092;13.916;2022-07-12T09:45:20;0.93;;;0.57;;
27863;SDS011;15980;51.092;13.916;2022-07-12T09:50:25;0.45;;;0.45;;
27863;SDS011;15980;51.092;13.916;2022-07-12T09:55:28;3.30;;;0.68;;
27863;SDS011;15980;51.092;13.916;2022-07-12T10:00:33;0.63;;;0.50;;
27863;SDS011;15980;51.092;13.916;2022-07-12T10:05:38;2.55;;;0.60;;
27863;SDS011;15980;51.092;13.916;2022-07-12T10:10:44;0.68;;;0.57;;
27863;SDS011;15980;51.092;13.916;2022-07-12T10:15:48;2.60;;;0.50;;
27863;SDS011;15980;51.092;13.916;2022-07-12T10:20:54;1.67;;;0.70;;
27863;SDS011;15980;51.092;13.916;2022-07-12T10:25:58;1.10;;;0.40;;
27863;SDS011;15980;51.092;13.916;2022-07-12T10:31:01;1.77;;;0.60;;
27863;SDS011;15980;51.092;13.916;2022-07-12T10:36:11;3.03;;;0.50;;
27863;SDS011;15980;51.092;13.916;2022-07-12T10:41:16;0.93;;;0.40;;
27863;SDS011;15980;51.092;13.916;2022-07-12T10:46:23;2.10;;;0.50;;
27863;SDS011;15980;51.092;13.916;2022-07-12T10:51:29;1.25;;;0.40;;
27863;SDS011;15980;51.092;13.916;2022-07-12T10:56:32;0.57;;;0.40;;
27863;SDS011;15980;51.092;13.916;2022-07-12T11:01:39;1.17;;;0.40;;
27863;SDS011;15980;51.092;13.916;2022-07-12T11:06:51;2.35;;;0.60;;
27863;SDS011;15980;51.092;13.916;2022-07-12T11:11:58;2.05;;;0.50;;
27863;SDS011;15980;51.092;13.916;2022-07-12T11:17:01;1.60;;;0.40;;
27863;SDS011;15980;51.092;13.916;2022-07-12T11:22:05;2.42;;;0.68;;
27863;SDS011;15980;51.092;13.916;2022-07-12T11:27:09;0.60;;;0.38;;
27863;SDS011;15980;51.092;13.916;2022-07-12T11:32:16;0.40;;;0.30;;
27863;SDS011;15980;51.092;13.916;2022-07-12T11:37:20;1.38;;;0.57;;
27863;SDS011;15980;51.092;13.916;2022-07-12T11:42:23;0.40;;;0.30;;
27863;SDS011;15980;51.092;13.916;2022-07-12T11:47:26;2.05;;;0.55;;
27863;SDS011;15980;51.092;13.916;2022-07-12T11:52:31;0.47;;;0.22;;
27863;SDS011;15980;51.092;13.916;2022-07-12T11:57:37;1.98;;;0.40;;
27863;SDS011;15980;51.092;13.916;2022-07-12T12:02:40;0.65;;;0.45;;
27863;SDS011;15980;51.092;13.916;2022-07-12T12:07:45;1.20;;;0.40;;
27863;SDS011;15980;51.092;13.916;2022-07-12T12:12:52;2.25;;;0.47;;
27863;SDS011;15980;51.092;13.916;2022-07-12T12:17:56;0.77;;;0.40;;
27863;SDS011;15980;51.092;13.916;2022-07-12T12:23:02;1.20;;;0.45;;
27863;SDS011;15980;51.092;13.916;2022-07-12T12:28:06;1.15;;;0.60;;
27863;SDS011;15980;51.092;13.916;2022-07-12T12:33:32;0.65;;;0.40;;
27863;SDS011;15980;51.092;13.916;2022-07-12T12:38:37;2.38;;;0.50;;
27863;SDS011;15980;51.092;13.916;2022-07-12T12:43:40;0.68;;;0.50;;
27863;SDS011;15980;51.092;13.916;2022-07-12T12:48:47;0.90;;;0.45;;
27863;SDS011;15980;51.092;13.916;2022-07-12T12:53:55;2.15;;;0.47;;
27863;SDS011;15980;51.092;13.916;2022-07-12T12:58:59;1.67;;;0.50;;
27863;SDS011;15980;51.092;13.916;2022-07-12T13:04:02;3.70;;;0.60;;
27863;SDS011;15980;51.092;13.916;2022-07-12T13:09:12;1.67;;;0.52;;
27863;SDS011;15980;51.092;13.916;2022-07-12T13:14:15;0.57;;;0.35;;
27863;SDS011;15980;51.092;13.916;2022-07-12T13:19:18;0.60;;;0.50;;
27863;SDS011;15980;51.092;13.916;2022-07-12T13:24:24;1.27;;;0.50;;
27863;SDS011;15980;51.092;13.916;2022-07-12T13:29:27;1.02;;;0.52;;
27863;SDS011;15980;51.092;13.916;2022-07-12T13:34:30;1.30;;;0.50;;
27863;SDS011;15980;51.092;13.916;2022-07-12T13:39:34;0.90;;;0.40;;
27863;SDS011;15980;51.092;13.916;2022-07-12T13:45:03;1.15;;;0.60;;
27863;SDS011;15980;51.092;13.916;2022-07-12T13:50:08;2.22;;;0.70;;
27863;SDS011;15980;51.092;13.916;2022-07-12T13:55:14;2.20;;;0.60;;
27863;SDS011;15980;51.092;13.916;2022-07-12T14:00:19;1.45;;;0.60;;
27863;SDS011;15980;51.092;13.916;2022-07-12T14:05:22;1.08;;;0.50;;
27863;SDS011;15980;51.092;13.916;2022-07-12T14:10:26;0.65;;;0.47;;
27863;SDS011;15980;51.092;13.916;2022-07-12T14:15:29;1.00;;;0.38;;
27863;SDS011;15980;51.092;13.916;2022-07-12T14:20:38;0.90;;;0.40;;
27863;SDS011;15980;51.092;13.916;2022-07-12T14:25:43;1.65;;;0.50;;
27863;SDS011;15980;51.092;13.916;2022-07-12T14:30:46;2.33;;;0.50;;
27863;SDS011;15980;51.092;13.916;2022-07-12T14:35:49;0.52;;;0.52;;
27863;SDS011;15980;51.092;13.916;2022-07-12T14:40:53;1.67;;;0.50;;
27863;SDS011;15980;51.092;13.916;2022-07-12T14:45:56;0.65;;;0.60;;
27863;SDS011;15980;51.092;13.916;2022-07-12T14:50:59;1.10;;;0.65;;
27863;SDS011;15980;51.092;13.916;2022-07-12T14:56:05;1.48;;;0.63;;
27863;SDS011;15980;51.092;13.916;2022-07-12T15:01:08;1.85;;;0.63;;
27863;SDS011;15980;51.092;13.916;2022-07-12T15:06:11;0.95;;;0.57;;
27863;SDS011;15980;51.092;13.916;2022-07-12T15:11:15;0.75;;;0.40;;
27863;SDS011;15980;51.092;13.916;2022-07-12T15:16:18;3.05;;;0.40;;
27863;SDS011;15980;51.092;13.916;2022-07-12T15:21:21;0.68;;;0.50;;
27863;SDS011;15980;51.092;13.916;2022-07-12T15:26:26;0.75;;;0.50;;
27863;SDS011;15980;51.092;13.916;2022-07-12T15:31:29;1.45;;;0.50;;
27863;SDS011;15980;51.092;13.916;2022-07-12T15:36:33;3.05;;;0.68;;
27863;SDS011;15980;51.092;13.916;2022-07-12T15:41:37;0.70;;;0.40;;
27863;SDS011;15980;51.092;13.916;2022-07-12T15:46:40;1.00;;;0.60;;
27863;SDS011;15980;51.092;13.916;2022-07-12T15:51:43;0.32;;;0.30;;
27863;SDS011;15980;51.092;13.916;2022-07-12T15:57:05;2.53;;;0.57;;
27863;SDS011;15980;51.092;13.916;2022-07-12T16:02:08;1.17;;;0.40;;
27863;SDS011;15980;51.092;13.916;2022-07-12T16:07:12;7.28;;;0.50;;
27863;SDS011;15980;51.092;13.916;2022-07-12T16:12:16;0.75;;;0.50;;
27863;SDS011;15980;51.092;13.916;2022-07-12T16:17:19;0.52;;;0.40;;
27863;SDS011;15980;51.092;13.916;2022-07-12T16:22:23;0.77;;;0.50;;
27863;SDS011;15980;51.092;13.916;2022-07-12T16:27:27;0.88;;;0.40;;
27863;SDS011;15980;51.092;13.916;2022-07-12T16:32:30;1.10;;;0.50;;
27863;SDS011;15980;51.092;13.916;2022-07-12T16:37:35;4.90;;;1.40;;
27863;SDS011;15980;51.092;13.916;2022-07-12T16:42:39;2.58;;;0.50;;
27863;SDS011;15980;51.092;13.916;2022-07-12T16:47:43;0.68;;;0.50;;
27863;SDS011;15980;51.092;13.916;2022-07-12T16:52:46;1.77;;;0.75;;
27863;SDS011;15980;51.092;13.916;2022-07-12T16:57:51;1.30;;;0.40;;
27863;SDS011;15980;51.092;13.916;2022-07-12T17:02:54;1.73;;;0.45;;
27863;SDS011;15980;51.092;13.916;2022-07-12T17:07:57;1.02;;;0.47;;
27863;SDS011;15980;51.092;13.916;2022-07-12T17:13:01;1.83;;;0.65;;
27863;SDS011;15980;51.092;13.916;2022-07-12T17:18:04;0.63;;;0.45;;
27863;SDS011;15980;51.092;13.916;2022-07-12T17:23:07;1.98;;;0.40;;
27863;SDS011;15980;51.092;13.916;2022-07-12T17:28:12;0.65;;;0.35;;
27863;SDS011;15980;51.092;13.916;2022-07-12T17:33:15;1.30;;;0.40;;
27863;SDS011;15980;51.092;13.916;2022-07-12T17:38:19;0.52;;;0.47;;
27863;SDS011;15980;51.092;13.916;2022-07-12T17:43:23;0.75;;;0.30;;
27863;SDS011;15980;51.092;13.916;2022-07-12T17:48:26;1.80;;;0.40;;
27863;SDS011;15980;51.092;13.916;2022-07-12T17:53:29;1.35;;;0.47;;
27863;SDS011;15980;51.092;13.916;2022-07-12T17:58:33;2.10;;;0.60;;
27863;SDS011;15980;51.092;13.916;2022-07-12T18:03:41;1.08;;;0.57;;
27863;SDS011;15980;51.092;13.916;2022-07-12T18:08:46;1.02;;;0.50;;
27863;SDS011;15980;51.092;13.916;2022-07-12T18:13:55;1.13;;;0.70;;
27863;SDS011;15980;51.092;13.916;2022-07-12T18:19:16;2.17;;;0.40;;
27863;SDS011;15980;51.092;13.916;2022-07-12T18:24:19;0.60;;;0.40;;
27863;SDS011;15980;51.092;13.916;2022-07-12T18:29:24;1.90;;;0.55;;
27863;SDS011;15980;51.092;13.916;2022-07-12T18:34:27;2.20;;;0.50;;
27863;SDS011;15980;51.092;13.916;2022-07-12T18:39:31;1.33;;;0.60;;
27863;SDS011;15980;51.092;13.916;2022-07-12T18:44:35;1.25;;;0.50;;
27863;SDS011;15980;51.092;13.916;2022-07-12T18:49:39;0.98;;;0.40;;
27863;SDS011;15980;51.092;13.916;2022-07-12T18:54:42;4.70;;;1.67;;
27863;SDS011;15980;51.092;13.916;2022-07-12T18:59:46;2.20;;;0.50;;
27863;SDS011;15980;51.092;13.916;2022-07-12T19:04:49;2.42;;;0.60;;
27863;SDS011;15980;51.092;13.916;2022-07-12T19:09:52;2.95;;;0.50;;
27863;SDS011;15980;51.092;13.916;2022-07-12T19:14:57;0.88;;;0.38;;
27863;SDS011;15980;51.092;13.916;2022-07-12T19:20:00;2.05;;;0.60;;
27863;SDS011;15980;51.092;13.916;2022-07-12T19:25:03;1.88;;;0.60;;
27863;SDS011;15980;51.092;13.916;2022-07-12T19:30:09;1.05;;;0.60;;
27863;SDS011;15980;51.092;13.916;2022-07-12T19:35:13;3.53;;;0.70;;
27863;SDS011;15980;51.092;13.916;2022-07-12T19:40:16;1.40;;;0.70;;
27863;SDS011;15980;51.092;13.916;2022-07-12T19:45:20;1.77;;;0.80;;
27863;SDS011;15980;51.092;13.916;2022-07-12T19:50:25;1.55;;;0.70;;
27863;SDS011;15980;51.092;13.916;2022-07-12T19:55:28;1.38;;;0.73;;
27863;SDS011;15980;51.092;13.916;2022-07-12T20:00:33;0.82;;;0.70;;
27863;SDS011;15980;51.092;13.916;2022-07-12T20:05:37;1.08;;;0.80;;
27863;SDS011;15980;51.092;13.916;2022-07-12T20:10:40;2.70;;;1.00;;
27863;SDS011;15980;51.092;13.916;2022-07-12T20:15:45;1.90;;;1.05;;
27863;SDS011;15980;51.092;13.916;2022-07-12T20:20:48;1.02;;;0.82;;
27863;SDS011;15980;51.092;13.916;2022-07-12T20:25:52;2.65;;;1.00;;
27863;SDS011;15980;51.092;13.916;2022-07-12T20:30:56;1.73;;;1.00;;
27863;SDS011;15980;51.092;13.916;2022-07-12T20:35:59;1.30;;;0.80;;
27863;SDS011;15980;51.092;13.916;2022-07-12T20:41:03;2.22;;;0.65;;
27863;SDS011;15980;51.092;13.916;2022-07-12T20:46:13;3.35;;;0.80;;
27863;SDS011;15980;51.092;13.916;2022-07-12T20:51:16;0.98;;;0.82;;
27863;SDS011;15980;51.092;13.916;2022-07-12T20:56:19;5.18;;;0.90;;
27863;SDS011;15980;51.092;13.916;2022-07-12T21:01:24;0.93;;;0.70;;
27863;SDS011;15980;51.092;13.916;2022-07-12T21:06:27;1.63;;;0.90;;
27863;SDS011;15980;51.092;13.916;2022-07-12T21:11:31;1.52;;;0.80;;
27863;SDS011;15980;51.092;13.916;2022-07-12T21:16:37;1.63;;;0.70;;
27863;SDS011;15980;51.092;13.916;2022-07-12T21:21:41;5.72;;;1.00;;
27863;SDS011;15980;51.092;13.916;2022-07-12T21:26:45;0.80;;;0.75;;
27863;SDS011;15980;51.092;13.916;2022-07-12T21:31:49;2.03;;;0.93;;
27863;SDS011;15980;51.092;13.916;2022-07-12T21:36:53;1.75;;;1.00;;
27863;SDS011;15980;51.092;13.916;2022-07-12T21:41:56;2.33;;;1.00;;
27863;SDS011;15980;51.092;13.916;2022-07-12T21:47:00;1.58;;;1.00;;
27863;SDS011;15980;51.092;13.916;2022-07-12T21:52:04;3.13;;;1.27;;
27863;SDS011;15980;51.092;13.916;2022-07-12T21:57:07;2.75;;;1.10;;
27863;SDS011;15980;51.092;13.916;2022-07-12T22:02:12;2.83;;;1.20;;
27863;SDS011;15980;51.092;13.916;2022-07-12T22:07:17;3.78;;;1.58;;
27863;SDS011;15980;51.092;13.916;2022-07-12T22:12:20;2.40;;;1.00;;
27863;SDS011;15980;51.092;13.916;2022-07-12T22:17:24;2.45;;;1.13;;
27863;SDS011;15980;51.092;13.916;2022-07-12T22:22:27;2.88;;;1.60;;
27863;SDS011;15980;51.092;13.916;2022-07-12T22:27:30;4.55;;;1.67;;
27863;SDS011;15980;51.092;13.916;2022-07-12T22:32:35;6.60;;;1.60;;
27863;SDS011;15980;51.092;13.916;2022-07-12T22:37:39;3.35;;;1.40;;
27863;SDS011;15980;51.092;13.916;2022-07-12T22:42:43;4.72;;;1.20;;
27863;SDS011;15980;51.092;13.916;2022-07-12T22:47:48;4.00;;;1.63;;
27863;SDS011;15980;51.092;13.916;2022-07-12T22:52:51;2.83;;;1.30;;
27863;SDS011;15980;51.092;13.916;2022-07-12T22:57:54;3.60;;;1.10;;
27863;SDS011;15980;51.092;13.916;2022-07-12T23:02:58;2.97;;;1.50;;
27863;SDS011;15980;51.092;13.916;2022-07-12T23:08:03;7.90;;;1.15;;
27863;SDS011;15980;51.092;13.916;2022-07-12T23:13:06;1.10;;;0.70;;
27863;SDS011;15980;51.092;13.916;2022-07-12T23:18:10;3.15;;;1.20;;
27863;SDS011;15980;51.092;13.916;2022-07-12T23:23:13;2.38;;;1.20;;
27863;SDS011;15980;51.092;13.916;2022-07-12T23:28:16;1.55;;;1.13;;
27863;SDS011;15980;51.092;13.916;2022-07-12T23:33:21;2.05;;;0.90;;
27863;SDS011;15980;51.092;13.916;2022-07-12T23:38:24;1.63;;;1.05;;
27863;SDS011;15980;51.092;13.916;2022-07-12T23:43:27;0.98;;;0.82;;
27863;SDS011;15980;51.092;13.916;2022-07-12T23:48:31;1.42;;;1.15;;
27863;SDS011;15980;51.092;13.916;2022-07-12T23:53:34;1.50;;;1.02;;
27863;SDS011;15980;51.092;13.916;2022-07-12T23:58:37;1.42;;;1.10;;
